Time;durP1;ratioP1;P1;durP2;ratioP2;P2;SDS_P1;SDS_P2;PMS_P1;PMS_P2;Temp;Humidity;BMP_temperature;BMP_pressure;BME280_temperature;BME280_humidity;BME280_pressure;Samples;Min_cycle;Max_cycle;Signal;HPM_P1;HPM_P2
2023/10/11 00:02:59;;;;;;;15.65;12.43;;;;;;;;;;4997498;28;20532;-74
2023/10/11 00:05:28;;;;;;;15.73;13.10;;;;;;;;;;4996932;28;20034;-75
2023/10/11 00:07:57;;;;;;;16.88;11.90;;;;;;;;;;4997718;28;20065;-74
2023/10/11 00:10:23;;;;;;;21.38;13.23;;;;;;;;;;4996096;28;20069;-75
2023/10/11 00:12:58;;;;;;;17.38;12.18;;;;;;;;;;4998111;28;20066;-74
2023/10/11 00:15:28;;;;;;;15.68;12.18;;;;;;;;;;4993425;28;20034;-74
2023/10/11 00:17:57;;;;;;;17.65;13.05;;;;;;;;;;4995973;28;20128;-74
2023/10/11 00:20:47;;;;;;;19.42;12.48;;;;;;;;;;4995303;28;20038;-74
2023/10/11 00:23:15;;;;;;;19.45;12.93;;;;;;;;;;4999949;28;20038;-73
2023/10/11 00:25:41;;;;;;;17.50;13.32;;;;;;;;;;4996398;28;20183;-73
2023/10/11 00:28:08;;;;;;;16.10;12.10;;;;;;;;;;5001186;28;20118;-74
2023/10/11 00:30:40;;;;;;;14.75;12.57;;;;;;;;;;4999153;28;20029;-73
2023/10/11 00:33:09;;;;;;;19.95;12.25;;;;;;;;;;4999467;28;20038;-74
2023/10/11 00:35:47;;;;;;;18.05;12.20;;;;;;;;;;4995310;28;20043;-73
2023/10/11 00:38:26;;;;;;;15.23;12.77;;;;;;;;;;4997499;28;20030;-76
2023/10/11 00:41:07;;;;;;;18.70;11.93;;;;;;;;;;4997572;28;20034;-74
2023/10/11 00:43:37;;;;;;;14.82;11.80;;;;;;;;;;5002278;28;20038;-75
2023/10/11 00:46:08;;;;;;;18.52;13.00;;;;;;;;;;4982581;28;20045;-75
2023/10/11 00:48:51;;;;;;;16.60;12.13;;;;;;;;;;4999617;28;20471;-74
2023/10/11 00:51:23;;;;;;;18.83;12.43;;;;;;;;;;4985956;28;20038;-74
2023/10/11 00:53:50;;;;;;;15.40;12.40;;;;;;;;;;4997196;28;20265;-74
2023/10/11 00:56:16;;;;;;;15.93;12.68;;;;;;;;;;4998308;28;20042;-74
2023/10/11 00:58:43;;;;;;;15.27;12.00;;;;;;;;;;5003148;28;20065;-74
2023/10/11 01:01:14;;;;;;;18.88;11.30;;;;;;;;;;5001463;28;20034;-75
2023/10/11 01:03:41;;;;;;;17.33;11.68;;;;;;;;;;4988576;28;20092;-74
2023/10/11 01:06:10;;;;;;;19.55;11.82;;;;;;;;;;4997128;28;20038;-75
2023/10/11 01:08:42;;;;;;;17.20;12.20;;;;;;;;;;4993785;28;20038;-74
2023/10/11 01:11:11;;;;;;;17.70;12.30;;;;;;;;;;4998611;28;20038;-74
2023/10/11 01:13:42;;;;;;;16.83;12.02;;;;;;;;;;5003665;28;20087;-74
2023/10/11 01:16:10;;;;;;;18.85;12.15;;;;;;;;;;4996988;28;20469;-74
2023/10/11 01:18:38;;;;;;;22.02;12.10;;;;;;;;;;4993190;28;20034;-74
2023/10/11 01:21:04;;;;;;;18.38;12.50;;;;;;;;;;4990426;28;20038;-75
2023/10/11 01:23:34;;;;;;;16.42;12.30;;;;;;;;;;4996130;28;20068;-74
2023/10/11 01:26:07;;;;;;;14.23;11.73;;;;;;;;;;4995991;28;20067;-75
2023/10/11 01:28:44;;;;;;;16.38;12.18;;;;;;;;;;4999728;28;20041;-72
2023/10/11 01:31:11;;;;;;;16.77;12.13;;;;;;;;;;4998350;28;20034;-75
2023/10/11 01:33:42;;;;;;;17.92;11.55;;;;;;;;;;4999263;28;20460;-74
2023/10/11 01:36:20;;;;;;;14.05;11.80;;;;;;;;;;4991177;28;22387;-75
2023/10/11 01:38:48;;;;;;;14.48;12.13;;;;;;;;;;4996000;28;20365;-75
2023/10/11 01:41:15;;;;;;;19.63;12.20;;;;;;;;;;4999723;28;20065;-74
2023/10/11 01:43:42;;;;;;;18.33;11.80;;;;;;;;;;4993900;28;20021;-74
2023/10/11 01:46:08;;;;;;;15.20;11.32;;;;;;;;;;5009180;28;20046;-75
2023/10/11 01:48:33;;;;;;;15.88;11.65;;;;;;;;;;4999605;28;20547;-75
2023/10/11 01:51:05;;;;;;;17.35;12.52;;;;;;;;;;5000048;28;20092;-74
2023/10/11 01:53:31;;;;;;;22.00;11.63;;;;;;;;;;4996069;28;20103;-74
2023/10/11 01:55:57;;;;;;;18.27;12.07;;;;;;;;;;4996153;28;20090;-74
2023/10/11 01:58:23;;;;;;;16.83;11.55;;;;;;;;;;4999365;28;20065;-75
2023/10/11 02:00:49;;;;;;;17.20;11.85;;;;;;;;;;5000457;28;20364;-75
2023/10/11 02:03:15;;;;;;;13.48;11.30;;;;;;;;;;4991725;28;20057;-76
2023/10/11 02:05:43;;;;;;;16.45;11.77;;;;;;;;;;4995959;28;20030;-74
2023/10/11 02:08:13;;;;;;;18.42;11.95;;;;;;;;;;4995122;28;20038;-75
2023/10/11 02:10:39;;;;;;;16.73;11.95;;;;;;;;;;5003304;28;20141;-76
2023/10/11 02:13:09;;;;;;;13.57;11.82;;;;;;;;;;4997886;28;20034;-74
2023/10/11 02:15:35;;;;;;;16.75;11.27;;;;;;;;;;5002545;28;20026;-75
2023/10/11 02:18:08;;;;;;;17.15;12.10;;;;;;;;;;4986869;28;20048;-75
2023/10/11 02:20:35;;;;;;;18.42;11.60;;;;;;;;;;4993207;28;20034;-74
2023/10/11 02:23:00;;;;;;;17.35;11.60;;;;;;;;;;4990771;28;20045;-75
2023/10/11 02:25:27;;;;;;;18.02;11.52;;;;;;;;;;4994028;28;20036;-75
2023/10/11 02:27:54;;;;;;;14.50;11.60;;;;;;;;;;4992565;28;20026;-75
2023/10/11 02:30:24;;;;;;;16.02;12.27;;;;;;;;;;4995947;28;20446;-75
2023/10/11 02:32:59;;;;;;;14.30;11.73;;;;;;;;;;4986445;28;20033;-75
2023/10/11 02:35:29;;;;;;;14.70;12.05;;;;;;;;;;5000592;28;20034;-75
2023/10/11 02:37:59;;;;;;;13.48;11.15;;;;;;;;;;4990492;28;20037;-75
2023/10/11 02:40:24;;;;;;;20.27;12.80;;;;;;;;;;4993146;28;20373;-74
2023/10/11 02:42:53;;;;;;;14.77;12.35;;;;;;;;;;4994551;28;20048;-74
2023/10/11 02:45:22;;;;;;;14.10;11.55;;;;;;;;;;4992306;28;20831;-75
2023/10/11 02:47:49;;;;;;;14.77;11.23;;;;;;;;;;4994720;28;20045;-76
2023/10/11 02:50:15;;;;;;;15.82;11.52;;;;;;;;;;4999837;28;20069;-75
2023/10/11 02:52:42;;;;;;;15.10;12.13;;;;;;;;;;4990762;28;20122;-75
2023/10/11 02:55:21;;;;;;;15.77;11.90;;;;;;;;;;4997469;28;20096;-74
2023/10/11 02:57:48;;;;;;;;;;;;;;;;;;4993851;28;20463;-75
2023/10/11 03:00:23;;;;;;;15.32;12.20;;;;;;;;;;4999976;28;19917;-75
2023/10/11 03:02:54;;;;;;;13.80;11.70;;;;;;;;;;4980870;28;20377;-75
2023/10/11 03:05:27;;;;;;;11.95;10.75;;;;;;;;;;4989203;28;20048;-74
2023/10/11 03:08:14;;;;;;;20.95;11.57;;;;;;;;;;5000591;28;20495;-74
2023/10/11 03:10:56;;;;;;;16.45;11.07;;;;;;;;;;4991442;28;20149;-74
2023/10/11 03:13:24;;;;;;;17.85;10.25;;;;;;;;;;4992445;28;20053;-74
2023/10/11 03:15:56;;;;;;;15.60;10.97;;;;;;;;;;5006920;28;20030;-76
2023/10/11 03:18:25;;;;;;;16.55;11.25;;;;;;;;;;4986883;28;20034;-75
2023/10/11 03:20:58;;;;;;;15.32;11.88;;;;;;;;;;4992942;28;20045;-74
2023/10/11 03:23:27;;;;;;;13.15;11.73;;;;;;;;;;4990969;28;20486;-74
2023/10/11 03:25:54;;;;;;;16.30;11.07;;;;;;;;;;4990191;28;20034;-74
2023/10/11 03:28:26;;;;;;;14.13;11.60;;;;;;;;;;4989164;28;20042;-75
2023/10/11 03:30:53;;;;;;;14.85;11.55;;;;;;;;;;5005566;28;20038;-75
2023/10/11 03:33:19;;;;;;;13.30;10.95;;;;;;;;;;4986196;28;20090;-75
2023/10/11 03:35:45;;;;;;;17.83;12.02;;;;;;;;;;4987484;28;20534;-74
2023/10/11 03:38:22;;;;;;;15.68;11.45;;;;;;;;;;4989714;28;20132;-74
2023/10/11 03:41:10;;;;;;;13.00;11.68;;;;;;;;;;4993860;28;20752;-73
2023/10/11 03:43:40;;;;;;;13.13;11.87;;;;;;;;;;4993517;28;20045;-74
2023/10/11 03:46:10;;;;;;;12.93;11.15;;;;;;;;;;4987093;28;20052;-74
2023/10/11 03:48:51;;;;;;;14.77;10.48;;;;;;;;;;4988559;28;20027;-74
2023/10/11 03:51:19;;;;;;;15.40;11.60;;;;;;;;;;4989837;28;20142;-74
2023/10/11 03:53:47;;;;;;;18.05;11.65;;;;;;;;;;4986183;28;20048;-74
2023/10/11 03:56:15;;;;;;;14.43;12.80;;;;;;;;;;4987545;28;21085;-74
2023/10/11 03:58:40;;;;;;;16.23;12.23;;;;;;;;;;4990612;28;20107;-74
2023/10/11 04:03:34;;;;;;;16.95;11.82;;;;;;;;;;4981791;28;20034;-75
2023/10/11 04:06:00;;;;;;;12.77;11.40;;;;;;;;;;4977611;28;20508;-75
2023/10/11 04:08:26;;;;;;;15.65;11.90;;;;;;;;;;4992190;28;20113;-74
2023/10/11 04:10:53;;;;;;;18.25;11.77;;;;;;;;;;4991480;28;20042;-74
2023/10/11 04:13:25;;;;;;;17.65;11.77;;;;;;;;;;4993956;28;20196;-74
2023/10/11 04:15:54;;;;;;;14.13;12.30;;;;;;;;;;4987429;28;20117;-74
2023/10/11 04:23:47;;;;;;;16.77;12.57;;;;;;;;;;4955402;28;20055;-74
2023/10/11 04:26:33;;;;;;;18.05;12.70;;;;;;;;;;4937593;28;20046;-73
2023/10/11 04:29:18;;;;;;;13.02;11.48;;;;;;;;;;4956904;28;20045;-73
2023/10/11 04:34:32;;;;;;;16.38;12.27;;;;;;;;;;4962773;28;20070;-74
2023/10/11 04:37:06;;;;;;;19.88;13.20;;;;;;;;;;4957132;28;20069;-74
2023/10/11 04:39:43;;;;;;;13.43;11.40;;;;;;;;;;4954781;28;20050;-73
2023/10/11 04:42:10;;;;;;;11.82;10.63;;;;;;;;;;4962067;28;20039;-75
2023/10/11 04:44:42;;;;;;;14.20;12.27;;;;;;;;;;4961574;28;20758;-74
2023/10/11 04:47:11;;;;;;;13.50;10.80;;;;;;;;;;4956790;28;20749;-75
2023/10/11 04:49:37;;;;;;;17.92;12.70;;;;;;;;;;4963017;28;20046;-74
2023/10/11 04:52:17;;;;;;;18.40;12.55;;;;;;;;;;4932328;28;20042;-75
2023/10/11 04:54:53;;;;;;;18.05;12.75;;;;;;;;;;4960895;28;20061;-75
2023/10/11 04:57:24;;;;;;;13.10;11.23;;;;;;;;;;4983371;28;20105;-74
2023/10/11 04:59:59;;;;;;;13.45;12.07;;;;;;;;;;4994700;28;20044;-75
2023/10/11 05:02:32;;;;;;;13.85;12.27;;;;;;;;;;4997679;28;20048;-74
2023/10/11 05:04:59;;;;;;;15.75;11.30;;;;;;;;;;4991892;28;20660;-74
2023/10/11 05:07:28;;;;;;;13.05;11.27;;;;;;;;;;4997765;28;20038;-73
2023/10/11 05:09:59;;;;;;;11.38;10.43;;;;;;;;;;4995442;28;20124;-75
2023/10/11 05:12:25;;;;;;;16.45;12.32;;;;;;;;;;4975188;28;20112;-75
2023/10/11 05:14:56;;;;;;;16.40;11.65;;;;;;;;;;4992621;28;20026;-74
2023/10/11 05:20:04;;;;;;;15.10;12.57;;;;;;;;;;4995934;28;20045;-74
2023/10/11 05:22:49;;;;;;;20.40;11.93;;;;;;;;;;4995303;28;20037;-75
2023/10/11 05:27:49;;;;;;;16.27;12.68;;;;;;;;;;4998487;28;20496;-74
2023/10/11 05:52:19;;;;;;;15.15;12.25;;;;;;;;;;5000150;28;20388;-76
2023/10/11 05:54:45;;;;;;;13.50;11.60;;;;;;;;;;4984787;28;20041;-75
2023/10/11 05:57:13;;;;;;;14.85;12.27;;;;;;;;;;5000794;28;20056;-75
2023/10/11 05:59:42;;;;;;;18.02;11.60;;;;;;;;;;5001089;28;20564;-76
2023/10/11 06:02:13;;;;;;;13.68;11.07;;;;;;;;;;4998346;28;20068;-76
2023/10/11 06:04:42;;;;;;;13.35;11.65;;;;;;;;;;5001718;28;20034;-76
2023/10/11 06:07:13;;;;;;;21.02;12.68;;;;;;;;;;5000356;28;20445;-76
2023/10/11 06:09:46;;;;;;;20.00;11.55;;;;;;;;;;4994818;28;20049;-75
2023/10/11 06:12:22;;;;;;;17.30;12.55;;;;;;;;;;4999152;28;20048;-74
2023/10/11 06:14:52;;;;;;;21.92;11.98;;;;;;;;;;4994363;28;20030;-75
2023/10/11 06:17:21;;;;;;;19.27;11.55;;;;;;;;;;4998048;28;20034;-76
2023/10/11 06:19:56;;;;;;;13.05;11.25;;;;;;;;;;5000600;28;20040;-75
2023/10/11 06:22:22;;;;;;;15.13;11.68;;;;;;;;;;4996763;28;20034;-75
2023/10/11 06:24:48;;;;;;;15.68;12.43;;;;;;;;;;5000302;28;20033;-73
2023/10/11 06:29:46;;;;;;;21.23;13.15;;;;;;;;;;4996569;28;20037;-76
2023/10/11 06:32:18;;;;;;;14.35;11.60;;;;;;;;;;5009134;28;20038;-74
2023/10/11 06:34:45;;;;;;;14.90;12.88;;;;;;;;;;4999926;28;20241;-75
2023/10/11 06:37:10;;;;;;;16.90;11.82;;;;;;;;;;4995552;28;20034;-74
2023/10/11 06:42:14;;;;;;;13.25;11.27;;;;;;;;;;4994816;28;20025;-73
2023/10/11 06:44:41;;;;;;;14.18;11.82;;;;;;;;;;4992818;28;20088;-74
2023/10/11 06:47:10;;;;;;;20.75;13.13;;;;;;;;;;5000568;28;20113;-74
2023/10/11 06:49:47;;;;;;;13.27;11.93;;;;;;;;;;4995896;28;20117;-74
2023/10/11 06:52:19;;;;;;;12.57;11.30;;;;;;;;;;4995508;28;20483;-73
2023/10/11 06:54:47;;;;;;;13.65;11.68;;;;;;;;;;4993956;28;20030;-73
2023/10/11 06:57:19;;;;;;;14.15;10.68;;;;;;;;;;4985385;28;20041;-74
2023/10/11 06:59:49;;;;;;;12.43;11.15;;;;;;;;;;4993642;28;20079;-74
2023/10/11 07:02:31;;;;;;;13.45;11.38;;;;;;;;;;5004157;28;20034;-74
2023/10/11 07:05:06;;;;;;;15.23;13.20;;;;;;;;;;5007493;28;20037;-75
2023/10/11 07:07:35;;;;;;;16.08;12.77;;;;;;;;;;4993698;28;20061;-74
2023/10/11 07:10:28;;;;;;;19.80;11.80;;;;;;;;;;4992237;28;20150;-74
2023/10/11 07:13:04;;;;;;;14.20;11.52;;;;;;;;;;4991479;28;20034;-75
2023/10/11 07:15:40;;;;;;;16.95;12.65;;;;;;;;;;4997133;28;20061;-75
2023/10/11 07:18:25;;;;;;;16.33;12.50;;;;;;;;;;4992196;28;20480;-75
2023/10/11 07:21:15;;;;;;;14.25;11.63;;;;;;;;;;4993680;28;20030;-76
2023/10/11 07:26:23;;;;;;;12.18;10.93;;;;;;;;;;4990344;28;20104;-75
2023/10/11 07:28:53;;;;;;;14.63;11.57;;;;;;;;;;4994375;28;20502;-76
2023/10/11 07:31:19;;;;;;;15.45;10.73;;;;;;;;;;4997961;28;20042;-76
2023/10/11 07:33:55;;;;;;;13.50;11.27;;;;;;;;;;4997169;28;20064;-76
2023/10/11 07:36:22;;;;;;;12.63;11.43;;;;;;;;;;4997798;28;20130;-76
2023/10/11 07:39:00;;;;;;;17.40;11.93;;;;;;;;;;4989442;28;20041;-74
2023/10/11 07:41:29;;;;;;;15.87;11.70;;;;;;;;;;4983085;28;20041;-74
2023/10/11 07:44:01;;;;;;;12.60;11.35;;;;;;;;;;4990448;28;20037;-74
2023/10/11 07:46:30;;;;;;;13.23;11.43;;;;;;;;;;4989469;28;20066;-75
2023/10/11 07:49:01;;;;;;;19.42;12.00;;;;;;;;;;4988855;28;20030;-76
2023/10/11 07:51:30;;;;;;;15.00;11.30;;;;;;;;;;4989854;28;20045;-74
2023/10/11 07:53:56;;;;;;;17.42;11.48;;;;;;;;;;4993363;28;20072;-75
2023/10/11 07:56:22;;;;;;;16.83;11.50;;;;;;;;;;4991045;28;20065;-75
2023/10/11 07:58:48;;;;;;;13.05;10.70;;;;;;;;;;4994166;28;20398;-75
2023/10/11 08:04:21;;;;;;;15.60;10.85;;;;;;;;;;4989967;28;20034;-75
2023/10/11 08:06:50;;;;;;;14.65;10.00;;;;;;;;;;5000414;28;20038;-76
2023/10/11 08:09:19;;;;;;;;;;;;;;;;;;4996039;28;20046;-75
2023/10/11 08:11:59;;;;;;;12.07;10.85;;;;;;;;;;4995928;28;20784;-75
2023/10/11 08:14:32;;;;;;;11.35;9.80;;;;;;;;;;4991874;28;20034;-75
2023/10/11 08:16:59;;;;;;;16.20;10.43;;;;;;;;;;4996939;28;20037;-75
2023/10/11 08:19:25;;;;;;;12.00;10.68;;;;;;;;;;4996868;28;20598;-76
2023/10/11 08:21:54;;;;;;;15.20;11.07;;;;;;;;;;4978942;28;20056;-74
2023/10/11 08:24:28;;;;;;;16.95;10.85;;;;;;;;;;4998030;28;20052;-75
2023/10/11 08:27:04;;;;;;;14.45;10.82;;;;;;;;;;4991349;28;20042;-75
2023/10/11 08:29:31;;;;;;;13.15;10.20;;;;;;;;;;4998066;28;20286;-76
2023/10/11 08:31:58;;;;;;;12.65;10.25;;;;;;;;;;4994746;28;20943;-75
2023/10/11 08:34:27;;;;;;;17.75;11.07;;;;;;;;;;4984401;28;20050;-76
2023/10/11 08:37:00;;;;;;;12.32;10.38;;;;;;;;;;5005217;28;20546;-74
2023/10/11 08:39:44;;;;;;;15.82;10.40;;;;;;;;;;4993370;28;20042;-74
2023/10/11 08:42:17;;;;;;;11.77;10.40;;;;;;;;;;4996206;28;20041;-76
2023/10/11 08:44:46;;;;;;;13.50;10.50;;;;;;;;;;4995332;28;20144;-75
2023/10/11 08:47:13;;;;;;;11.43;10.23;;;;;;;;;;4996636;28;20042;-76
2023/10/11 08:49:48;;;;;;;14.02;10.10;;;;;;;;;;4998055;28;20037;-76
2023/10/11 08:52:29;;;;;;;13.93;10.18;;;;;;;;;;4999124;28;20038;-75
2023/10/11 08:54:58;;;;;;;18.45;10.02;;;;;;;;;;4981520;28;20041;-75
2023/10/11 08:57:25;;;;;;;15.00;10.65;;;;;;;;;;4995212;28;20076;-76
2023/10/11 08:59:56;;;;;;;13.30;10.45;;;;;;;;;;4994135;28;20037;-76
2023/10/11 09:02:33;;;;;;;16.48;10.75;;;;;;;;;;5000048;28;20037;-75
2023/10/11 09:05:06;;;;;;;14.88;11.00;;;;;;;;;;4995647;28;20058;-76
2023/10/11 09:07:44;;;;;;;16.10;10.35;;;;;;;;;;4994060;28;20121;-77
2023/10/11 09:10:22;;;;;;;13.50;10.38;;;;;;;;;;4995300;28;20043;-77
2023/10/11 09:12:49;;;;;;;14.45;10.85;;;;;;;;;;5012554;28;20042;-74
2023/10/11 09:15:14;;;;;;;16.30;11.45;;;;;;;;;;4990897;28;20065;-75
2023/10/11 09:17:40;;;;;;;17.70;10.75;;;;;;;;;;4995338;28;20054;-75
2023/10/11 09:20:23;;;;;;;17.55;10.70;;;;;;;;;;4998140;28;20493;-74
2023/10/11 09:22:55;;;;;;;12.80;10.77;;;;;;;;;;4983405;28;20045;-75
2023/10/11 09:25:26;;;;;;;13.13;10.07;;;;;;;;;;4996467;28;20488;-75
2023/10/11 09:27:57;;;;;;;15.45;10.02;;;;;;;;;;4997362;28;20045;-75
2023/10/11 09:30:26;;;;;;;16.15;10.07;;;;;;;;;;4996132;28;20038;-75
2023/10/11 09:32:59;;;;;;;14.30;9.85;;;;;;;;;;4996119;28;20041;-75
2023/10/11 09:35:27;;;;;;;15.82;9.98;;;;;;;;;;5000552;28;20074;-75
2023/10/11 09:37:59;;;;;;;12.07;9.93;;;;;;;;;;4995487;28;20557;-75
2023/10/11 09:40:33;;;;;;;13.60;10.02;;;;;;;;;;4998523;28;20045;-76
2023/10/11 09:43:02;;;;;;;14.05;9.60;;;;;;;;;;4984586;28;20084;-75
2023/10/11 09:45:41;;;;;;;18.45;10.43;;;;;;;;;;4998308;28;20476;-75
2023/10/11 09:48:15;;;;;;;12.73;10.20;;;;;;;;;;4995615;28;20049;-75
2023/10/11 09:50:42;;;;;;;17.25;10.32;;;;;;;;;;4998989;28;20124;-76
2023/10/11 09:53:10;;;;;;;17.15;9.75;;;;;;;;;;4996453;28;20038;-75
2023/10/11 09:55:49;;;;;;;14.95;10.40;;;;;;;;;;4994491;28;20045;-75
2023/10/11 09:58:29;;;;;;;20.42;10.88;;;;;;;;;;4998229;28;20046;-75
2023/10/11 10:01:07;;;;;;;13.20;10.27;;;;;;;;;;5000597;28;20514;-76
2023/10/11 10:03:38;;;;;;;13.10;9.97;;;;;;;;;;5005733;28;20038;-76
2023/10/11 10:06:28;;;;;;;18.13;10.00;;;;;;;;;;5002757;28;20142;-77
2023/10/11 10:12:06;;;;;;;14.95;10.23;;;;;;;;;;5001927;28;20646;-78
2023/10/11 10:14:35;;;;;;;16.65;10.00;;;;;;;;;;5003521;28;20056;-77
2023/10/11 10:17:18;;;;;;;17.38;9.57;;;;;;;;;;4986222;28;20400;-78
2023/10/11 10:19:46;;;;;;;15.43;9.52;;;;;;;;;;4995892;28;20048;-76
2023/10/11 10:22:27;;;;;;;14.70;8.50;;;;;;;;;;4999830;28;20042;-76
2023/10/11 10:24:54;;;;;;;16.98;9.77;;;;;;;;;;4994906;28;20065;-75
2023/10/11 10:27:34;;;;;;;17.58;9.43;;;;;;;;;;4988434;28;20039;-76
2023/10/11 10:30:03;;;;;;;15.98;9.73;;;;;;;;;;4989359;28;20173;-75
2023/10/11 10:32:30;;;;;;;15.00;9.73;;;;;;;;;;4995547;28;20509;-75
2023/10/11 10:35:18;;;;;;;14.93;9.52;;;;;;;;;;4987374;28;20113;-75
2023/10/11 10:37:46;;;;;;;13.77;9.65;;;;;;;;;;4992730;28;20153;-75
2023/10/11 10:40:24;;;;;;;16.90;9.75;;;;;;;;;;4987880;28;20037;-76
2023/10/11 10:43:08;;;;;;;15.57;10.60;;;;;;;;;;4955045;28;20042;-76
2023/10/11 10:45:35;;;;;;;20.13;10.65;;;;;;;;;;4994790;28;20060;-76
2023/10/11 10:48:18;;;;;;;14.98;9.75;;;;;;;;;;4991846;28;20062;-76
2023/10/11 10:51:04;;;;;;;16.13;9.20;;;;;;;;;;4993708;28;20042;-75
2023/10/11 10:53:53;;;;;;;12.93;9.80;;;;;;;;;;4997016;28;20127;-74
2023/10/11 10:56:29;;;;;;;16.88;9.77;;;;;;;;;;4992938;28;20054;-74
2023/10/11 10:59:07;;;;;;;14.55;10.02;;;;;;;;;;4998599;28;20045;-75
2023/10/11 11:01:34;;;;;;;;;;;;;;;;;;4967506;28;20042;-75
2023/10/11 11:04:06;;;;;;;14.50;9.00;;;;;;;;;;4999633;28;20614;-75
2023/10/11 11:06:46;;;;;;;14.20;9.70;;;;;;;;;;4979573;28;20033;-78
2023/10/11 11:09:15;;;;;;;18.35;9.85;;;;;;;;;;4999759;28;20077;-74
2023/10/11 11:11:41;;;;;;;13.75;9.15;;;;;;;;;;5003992;28;20034;-75
2023/10/11 11:14:13;;;;;;;16.08;9.05;;;;;;;;;;5003487;28;20125;-75
2023/10/11 11:16:41;;;;;;;11.80;8.93;;;;;;;;;;4998299;28;20022;-75
2023/10/11 11:19:16;;;;;;;14.47;8.97;;;;;;;;;;4999851;28;20056;-75
2023/10/11 11:21:46;;;;;;;14.23;8.73;;;;;;;;;;4999723;28;20042;-74
2023/10/11 11:24:20;;;;;;;16.20;8.73;;;;;;;;;;5000367;28;20034;-76
2023/10/11 11:26:46;;;;;;;13.23;8.50;;;;;;;;;;4990589;28;20042;-75
2023/10/11 11:29:31;;;;;;;9.82;8.13;;;;;;;;;;4997775;28;20030;-76
2023/10/11 11:31:59;;;;;;;13.13;9.50;;;;;;;;;;4996766;28;20474;-75
2023/10/11 11:34:33;;;;;;;13.43;8.82;;;;;;;;;;4993603;28;20046;-78
2023/10/11 11:37:06;;;;;;;13.05;9.10;;;;;;;;;;4994907;28;20046;-77
2023/10/11 11:42:01;;;;;;;;;;;;;;;;;;4995938;28;20084;-76
2023/10/11 11:44:31;;;;;;;18.10;9.63;;;;;;;;;;4996846;28;20612;-76
2023/10/11 11:47:04;;;;;;;10.73;8.60;;;;;;;;;;4997785;28;20033;-77
2023/10/11 11:49:29;;;;;;;16.45;9.13;;;;;;;;;;4994382;28;20527;-79
2023/10/11 11:51:55;;;;;;;19.23;9.32;;;;;;;;;;4993625;28;20033;-77
2023/10/11 11:54:23;;;;;;;14.82;9.00;;;;;;;;;;4997444;28;20110;-76
2023/10/11 11:56:54;;;;;;;16.58;9.68;;;;;;;;;;4992181;28;20034;-76
2023/10/11 11:59:25;;;;;;;14.57;9.38;;;;;;;;;;4992413;28;20066;-78
2023/10/11 12:02:00;;;;;;;11.18;9.10;;;;;;;;;;4996077;28;20038;-76
2023/10/11 12:04:30;;;;;;;20.67;9.63;;;;;;;;;;4994894;28;20045;-76
2023/10/11 12:07:01;;;;;;;13.80;9.30;;;;;;;;;;4995695;28;20038;-78
2023/10/11 12:09:33;;;;;;;14.50;9.70;;;;;;;;;;4994547;28;20085;-77
2023/10/11 12:12:04;;;;;;;15.32;10.05;;;;;;;;;;4990297;28;20041;-77
2023/10/11 12:14:30;;;;;;;16.58;10.25;;;;;;;;;;4996481;28;20080;-78
2023/10/11 12:16:57;;;;;;;14.70;9.70;;;;;;;;;;4993690;28;20040;-77
2023/10/11 12:19:23;;;;;;;13.77;9.80;;;;;;;;;;4988490;28;20030;-77
2023/10/11 12:21:57;;;;;;;14.95;9.90;;;;;;;;;;4995590;28;20096;-78
2023/10/11 12:24:24;;;;;;;18.20;10.38;;;;;;;;;;4997808;28;20889;-78
2023/10/11 12:26:49;;;;;;;10.77;9.65;;;;;;;;;;4995724;28;20041;-79
2023/10/11 12:29:18;;;;;;;17.63;10.45;;;;;;;;;;4996617;28;20055;-77
2023/10/11 12:31:44;;;;;;;17.45;10.70;;;;;;;;;;5001966;28;20545;-77
2023/10/11 12:34:10;;;;;;;18.67;10.27;;;;;;;;;;4997490;28;20034;-77
2023/10/11 12:36:42;;;;;;;13.68;9.98;;;;;;;;;;5000754;28;20137;-80
2023/10/11 12:39:21;;;;;;;12.13;9.60;;;;;;;;;;5001147;28;20502;-77
2023/10/11 12:41:49;;;;;;;16.60;9.55;;;;;;;;;;4999865;28;20065;-77
2023/10/11 12:44:16;;;;;;;15.10;9.57;;;;;;;;;;4992408;28;20026;-77
2023/10/11 12:46:41;;;;;;;13.32;9.82;;;;;;;;;;5002495;28;20038;-79
2023/10/11 12:49:13;;;;;;;17.58;10.02;;;;;;;;;;4999603;28;20052;-78
2023/10/11 12:51:44;;;;;;;12.93;10.30;;;;;;;;;;5003285;28;20084;-79
2023/10/11 12:54:19;;;;;;;11.23;9.38;;;;;;;;;;5006296;28;20121;-78
2023/10/11 12:56:51;;;;;;;19.08;9.98;;;;;;;;;;5007079;28;20069;-80
2023/10/11 12:59:19;;;;;;;12.80;9.68;;;;;;;;;;5004388;28;20119;-77
2023/10/11 13:01:57;;;;;;;10.35;9.35;;;;;;;;;;5006944;28;20064;-78
2023/10/11 13:04:30;;;;;;;11.40;10.23;;;;;;;;;;5001185;28;20080;-79
2023/10/11 13:06:59;;;;;;;13.40;9.93;;;;;;;;;;5002142;28;20744;-77
2023/10/11 13:09:30;;;;;;;13.80;11.02;;;;;;;;;;5003475;28;20048;-78
2023/10/11 13:12:02;;;;;;;14.63;10.98;;;;;;;;;;5003792;28;20041;-77
2023/10/11 13:14:28;;;;;;;13.25;10.32;;;;;;;;;;5003303;28;20038;-78
2023/10/11 13:16:55;;;;;;;15.05;10.00;;;;;;;;;;4998155;28;20040;-77
2023/10/11 13:19:24;;;;;;;16.63;10.43;;;;;;;;;;5003045;28;20650;-78
2023/10/11 13:21:53;;;;;;;17.42;10.18;;;;;;;;;;4996599;28;20514;-77
2023/10/11 13:24:22;;;;;;;;;;;;;;;;;;4998961;28;20052;-77
2023/10/11 13:26:54;;;;;;;18.63;10.43;;;;;;;;;;4996107;28;19971;-77
2023/10/11 13:29:21;;;;;;;15.32;10.85;;;;;;;;;;5003300;28;20500;-77
2023/10/11 13:31:48;;;;;;;19.27;10.57;;;;;;;;;;4994556;28;20140;-77
2023/10/11 13:34:14;;;;;;;15.55;10.43;;;;;;;;;;4999086;28;20403;-77
2023/10/11 13:36:43;;;;;;;11.20;10.10;;;;;;;;;;5002625;28;20033;-77
2023/10/11 13:39:29;;;;;;;12.23;9.30;;;;;;;;;;5001532;28;20034;-79
2023/10/11 13:41:56;;;;;;;13.23;9.38;;;;;;;;;;5013395;28;20065;-77
2023/10/11 13:44:26;;;;;;;10.40;9.35;;;;;;;;;;5020310;28;20033;-76
2023/10/11 13:46:55;;;;;;;10.38;9.48;;;;;;;;;;5016254;28;20030;-76
2023/10/11 13:49:25;;;;;;;;;;;;;;;;;;5011274;28;20071;-76
2023/10/11 13:51:54;;;;;;;11.10;9.10;;;;;;;;;;5005459;28;20007;-76
2023/10/11 13:54:53;;;;;;;14.90;9.82;;;;;;;;;;5015649;28;20042;-76
2023/10/11 13:57:18;;;;;;;10.45;9.30;;;;;;;;;;4994905;28;20096;-77
2023/10/11 13:59:48;;;;;;;12.20;9.43;;;;;;;;;;5002250;28;20845;-78
2023/10/11 14:04:59;;;;;;;15.40;9.65;;;;;;;;;;5001900;28;20056;-78
2023/10/11 14:07:37;;;;;;;11.73;9.27;;;;;;;;;;5003099;28;20582;-76
2023/10/11 14:13:08;;;;;;;13.43;8.80;;;;;;;;;;4972516;28;19918;-77
2023/10/11 14:15:35;;;;;;;11.48;8.93;;;;;;;;;;4961405;28;20133;-78
2023/10/11 14:18:03;;;;;;;9.03;8.30;;;;;;;;;;4978491;28;20120;-76
2023/10/11 14:20:32;;;;;;;10.85;9.07;;;;;;;;;;4978794;28;20041;-77
2023/10/11 14:22:58;;;;;;;13.70;9.05;;;;;;;;;;4972553;28;20058;-76
2023/10/11 14:25:29;;;;;;;16.83;9.35;;;;;;;;;;4979066;28;20046;-76
2023/10/11 14:27:54;;;;;;;12.70;9.05;;;;;;;;;;4976415;28;20035;-78
2023/10/11 14:30:20;;;;;;;10.55;8.60;;;;;;;;;;4945423;28;20060;-79
2023/10/11 14:32:46;;;;;;;10.95;8.30;;;;;;;;;;4981388;28;20562;-77
2023/10/11 14:35:16;;;;;;;12.73;8.68;;;;;;;;;;4979451;28;20121;-76
2023/10/11 14:37:43;;;;;;;9.40;8.65;;;;;;;;;;4970648;28;20042;-78
2023/10/11 14:40:16;;;;;;;10.07;8.73;;;;;;;;;;4979008;28;20039;-78
2023/10/11 14:42:45;;;;;;;13.73;9.07;;;;;;;;;;4976181;28;20142;-77
2023/10/11 14:45:13;;;;;;;13.55;8.40;;;;;;;;;;4972084;28;20070;-77
2023/10/11 14:47:45;;;;;;;11.93;8.35;;;;;;;;;;4978995;28;20030;-77
2023/10/11 14:50:15;;;;;;;14.32;8.52;;;;;;;;;;4998405;28;20161;-77
2023/10/11 14:52:44;;;;;;;9.32;8.40;;;;;;;;;;4992960;28;20026;-77
2023/10/11 14:55:16;;;;;;;14.82;8.77;;;;;;;;;;5008113;28;20033;-77
2023/10/11 14:57:52;;;;;;;10.15;8.68;;;;;;;;;;5004476;28;20066;-78
2023/10/11 15:00:22;;;;;;;11.75;8.63;;;;;;;;;;4995315;28;20091;-76
2023/10/11 15:02:49;;;;;;;12.05;8.85;;;;;;;;;;4997939;28;20117;-78
2023/10/11 15:05:15;;;;;;;15.85;9.02;;;;;;;;;;4994759;28;20029;-77
2023/10/11 15:07:53;;;;;;;16.73;8.90;;;;;;;;;;4999243;28;20034;-77
2023/10/11 15:10:23;;;;;;;14.55;8.82;;;;;;;;;;4999070;28;20092;-77
2023/10/11 15:12:50;;;;;;;14.43;8.40;;;;;;;;;;4996656;28;20981;-77
2023/10/11 15:15:19;;;;;;;15.07;8.82;;;;;;;;;;5007324;28;20030;-77
2023/10/11 15:17:49;;;;;;;12.27;9.05;;;;;;;;;;4999910;28;20034;-77
2023/10/11 15:20:14;;;;;;;9.60;8.70;;;;;;;;;;5002437;28;20029;-77
2023/10/11 15:22:40;;;;;;;12.27;8.70;;;;;;;;;;5002152;28;20063;-77
2023/10/11 15:25:08;;;;;;;10.40;9.13;;;;;;;;;;4998489;28;20030;-77
2023/10/11 15:27:34;;;;;;;11.18;9.02;;;;;;;;;;4999622;28;20844;-78
2023/10/11 15:30:00;;;;;;;9.85;8.38;;;;;;;;;;4996445;28;20508;-77
2023/10/11 15:32:26;;;;;;;12.35;9.10;;;;;;;;;;4995807;28;20041;-77
2023/10/11 15:34:52;;;;;;;11.60;8.95;;;;;;;;;;5002462;28;20096;-76
2023/10/11 15:37:18;;;;;;;11.77;8.43;;;;;;;;;;4997689;28;20036;-78
2023/10/11 15:39:45;;;;;;;10.38;9.38;;;;;;;;;;4992257;28;20036;-77
2023/10/11 15:42:11;;;;;;;10.43;9.00;;;;;;;;;;4996513;28;20483;-77
2023/10/11 15:44:38;;;;;;;11.75;8.85;;;;;;;;;;4999715;28;20651;-76
2023/10/11 15:47:04;;;;;;;14.25;9.07;;;;;;;;;;4996932;28;20043;-76